createdAt,value
2022-10-06T00:00:37.780Z,78.35
2022-10-06T00:03:28.129Z,78.38
2022-10-06T00:06:03.416Z,78.64
2022-10-06T00:08:37.760Z,78.61
2022-10-06T00:11:11.155Z,78.69
2022-10-06T00:13:43.445Z,78.57
2022-10-06T00:16:17.628Z,78.65
2022-10-06T00:18:49.647Z,78.72
2022-10-06T00:21:21.874Z,78.87
2022-10-06T00:23:52.275Z,78.96
2022-10-06T00:26:24.308Z,79.19
2022-10-06T00:28:54.757Z,79.18
2022-10-06T00:31:26.906Z,79.27
2022-10-06T00:33:57.217Z,79.16
2022-10-06T00:36:29.408Z,79.35
2022-10-06T00:39:01.325Z,79.30
2022-10-06T00:41:33.682Z,79.25
2022-10-06T00:44:03.976Z,79.35
2022-10-06T00:46:40.940Z,79.42
2022-10-06T00:49:18.213Z,79.49
2022-10-06T00:51:54.108Z,79.51
2022-10-06T00:54:26.655Z,79.61
2022-10-06T00:56:59.054Z,79.60
2022-10-06T00:59:29.375Z,79.69
2022-10-06T01:02:08.460Z,79.65
2022-10-06T01:04:46.099Z,79.67
2022-10-06T01:07:20.548Z,79.78
2022-10-06T01:09:52.655Z,79.82
2022-10-06T01:12:25.561Z,79.95
2022-10-06T01:14:58.560Z,79.89
2022-10-06T01:17:37.084Z,80.22
2022-10-06T01:20:13.060Z,80.24
2022-10-06T01:22:47.619Z,80.48
2022-10-06T01:25:21.537Z,80.51
2022-10-06T01:27:55.227Z,80.71
2022-10-06T01:30:37.476Z,80.72
2022-10-06T01:33:09.453Z,80.96
2022-10-06T01:35:41.706Z,80.94
2022-10-06T01:38:13.926Z,80.83
2022-10-06T01:40:46.430Z,80.99
2022-10-06T01:43:18.384Z,81.12
2022-10-06T01:45:52.946Z,81.32
2022-10-06T01:48:25.955Z,81.43
2022-10-06T01:50:58.754Z,81.37
2022-10-06T01:53:29.971Z,81.57
2022-10-06T01:56:02.558Z,81.69
2022-10-06T01:58:36.076Z,81.62
2022-10-06T02:01:11.383Z,81.66
2022-10-06T02:03:43.632Z,81.88
2022-10-06T02:06:15.663Z,82.07
2022-10-06T02:08:48.765Z,82.08
2022-10-06T02:11:22.457Z,82.19
2022-10-06T02:13:55.037Z,82.22
2022-10-06T02:16:25.614Z,82.40
2022-10-06T02:18:57.607Z,82.71
2022-10-06T02:21:29.538Z,82.88
2022-10-06T02:24:01.429Z,82.85
2022-10-06T02:26:33.465Z,82.81
2022-10-06T02:29:05.288Z,83.02
2022-10-06T02:31:36.050Z,83.06
2022-10-06T02:34:07.979Z,83.18
2022-10-06T02:36:38.535Z,83.06
2022-10-06T02:39:11.253Z,83.31
2022-10-06T02:41:43.437Z,83.23
2022-10-06T02:44:15.731Z,83.32
2022-10-06T02:46:49.261Z,83.41
2022-10-06T02:49:22.528Z,83.41
2022-10-06T02:51:54.629Z,83.55
2022-10-06T02:54:25.136Z,83.48
2022-10-06T02:56:57.138Z,83.45
2022-10-06T02:59:29.050Z,83.45
2022-10-06T03:02:01.061Z,83.46
2022-10-06T03:04:31.721Z,83.33
2022-10-06T03:07:03.646Z,83.53
2022-10-06T03:09:40.696Z,83.57
2022-10-06T03:12:13.622Z,83.50
2022-10-06T03:14:47.972Z,83.57
2022-10-06T03:17:20.034Z,83.65
2022-10-06T03:19:57.074Z,83.91
2022-10-06T03:22:29.728Z,83.95
2022-10-06T03:25:02.337Z,84.03
2022-10-06T03:27:32.796Z,84.06
2022-10-06T03:30:07.598Z,84.23
2022-10-06T03:32:39.774Z,84.34
2022-10-06T03:35:12.920Z,84.28
2022-10-06T03:37:45.260Z,84.33
2022-10-06T03:40:18.520Z,84.34
2022-10-06T03:42:50.920Z,84.51
2022-10-06T03:45:22.876Z,84.52
2022-10-06T03:47:57.749Z,84.62
2022-10-06T03:50:30.073Z,84.55
2022-10-06T03:53:01.985Z,84.59
2022-10-06T03:55:34.873Z,84.60
2022-10-06T03:58:07.030Z,84.72
2022-10-06T04:00:39.378Z,84.79
2022-10-06T04:03:11.315Z,84.82
2022-10-06T04:05:55.188Z,84.87
2022-10-06T04:08:29.018Z,85.11
2022-10-06T04:11:09.168Z,85.18
2022-10-06T04:13:43.044Z,85.21
2022-10-06T04:16:18.161Z,85.29
2022-10-06T04:18:52.986Z,85.35
2022-10-06T04:21:25.784Z,85.27
2022-10-06T04:24:00.318Z,85.37
2022-10-06T04:26:33.993Z,85.44
2022-10-06T04:29:06.464Z,85.33
2022-10-06T04:31:41.086Z,85.29
2022-10-06T04:34:16.526Z,85.30
2022-10-06T04:36:49.650Z,85.47
2022-10-06T04:39:23.565Z,85.42
2022-10-06T04:41:55.704Z,85.61
2022-10-06T04:44:31.818Z,85.72
2022-10-06T04:47:06.397Z,85.76
2022-10-06T04:49:37.092Z,85.78
2022-10-06T04:52:09.104Z,85.95
2022-10-06T04:54:42.886Z,86.15
2022-10-06T04:57:15.091Z,86.23
2022-10-06T05:00:07.863Z,86.12
2022-10-06T05:02:42.505Z,86.32
2022-10-06T05:05:15.139Z,86.28
2022-10-06T05:07:47.820Z,86.21
2022-10-06T05:10:20.274Z,86.18
2022-10-06T05:12:52.701Z,86.12
2022-10-06T05:15:24.730Z,86.08
2022-10-06T05:17:55.150Z,85.89
2022-10-06T05:20:27.635Z,85.85
2022-10-06T05:22:59.531Z,85.86
2022-10-06T05:25:31.537Z,85.72
2022-10-06T05:28:03.602Z,85.64
2022-10-06T05:30:36.055Z,85.62
2022-10-06T05:33:08.092Z,85.70
2022-10-06T05:35:40.264Z,85.60
2022-10-06T05:38:11.809Z,85.45
2022-10-06T05:40:43.867Z,85.30
2022-10-06T05:43:17.163Z,85.23
2022-10-06T05:46:00.265Z,85.05
2022-10-06T05:48:33.177Z,85.02
2022-10-06T05:51:07.800Z,84.91
2022-10-06T05:53:41.421Z,84.88
2022-10-06T05:56:16.109Z,84.75
2022-10-06T05:58:49.732Z,84.85
2022-10-06T06:01:24.228Z,84.92
2022-10-06T06:04:00.663Z,84.95
2022-10-06T06:06:38.850Z,84.62
2022-10-06T06:09:15.954Z,84.17
2022-10-06T06:11:50.298Z,83.96
2022-10-06T06:14:45.899Z,83.82
2022-10-06T06:17:24.850Z,83.41
2022-10-06T06:19:55.223Z,83.39
2022-10-06T06:22:27.673Z,83.39
2022-10-06T06:24:59.843Z,83.29
2022-10-06T06:27:32.383Z,83.26
2022-10-06T06:30:06.222Z,83.04
2022-10-06T06:32:40.269Z,82.86
2022-10-06T06:35:13.155Z,82.52
2022-10-06T06:37:47.036Z,82.84
2022-10-06T06:40:19.207Z,83.08
2022-10-06T06:42:53.714Z,82.98
2022-10-06T06:45:44.695Z,82.33
2022-10-06T06:48:24.484Z,80.96
2022-10-06T06:51:00.109Z,80.03
2022-10-06T06:53:35.199Z,79.19
2022-10-06T06:56:09.410Z,77.54
2022-10-06T06:58:46.361Z,75.79
2022-10-06T07:01:20.708Z,74.42
2022-10-06T07:03:58.344Z,73.30
2022-10-06T07:06:33.586Z,72.48
2022-10-06T07:09:07.664Z,71.64
2022-10-06T07:11:42.172Z,70.10
2022-10-06T07:14:18.445Z,69.33
2022-10-06T07:17:10.014Z,68.46
2022-10-06T07:20:02.354Z,67.79
2022-10-06T07:22:56.325Z,66.90
2022-10-06T07:25:29.029Z,65.97
2022-10-06T07:28:04.096Z,65.37
2022-10-06T07:30:42.202Z,64.57
2022-10-06T07:33:18.078Z,63.37
2022-10-06T07:35:50.552Z,62.28
2022-10-06T07:38:26.025Z,61.46
2022-10-06T07:41:18.268Z,61.23
2022-10-06T07:43:54.664Z,60.28
2022-10-06T07:46:27.639Z,59.93
2022-10-06T07:49:21.357Z,58.71
2022-10-06T07:51:53.756Z,57.83
2022-10-06T07:54:27.470Z,56.21
2022-10-06T07:57:17.149Z,56.30
2022-10-06T07:59:49.025Z,54.82
2022-10-06T08:02:23.285Z,54.43
2022-10-06T08:04:56.180Z,54.30
2022-10-06T08:07:29.036Z,53.78
2022-10-06T08:10:01.323Z,53.41
2022-10-06T08:12:37.819Z,54.01
2022-10-06T08:15:14.430Z,54.30
2022-10-06T08:17:47.249Z,54.21
2022-10-06T08:20:19.183Z,53.52
2022-10-06T08:22:51.684Z,53.18
2022-10-06T08:25:23.743Z,52.68
2022-10-06T08:27:55.697Z,52.42
2022-10-06T08:30:27.750Z,51.85
2022-10-06T08:33:00.302Z,51.82
2022-10-06T08:35:32.381Z,51.52
2022-10-06T08:38:04.365Z,50.63
2022-10-06T08:40:36.898Z,50.63
2022-10-06T08:43:17.581Z,51.09
2022-10-06T08:45:50.336Z,50.36
2022-10-06T08:48:30.082Z,49.86
2022-10-06T08:51:09.806Z,49.01
2022-10-06T08:53:47.158Z,48.68
2022-10-06T08:56:21.894Z,47.76
2022-10-06T08:58:58.503Z,47.17
2022-10-06T09:01:33.982Z,46.97
2022-10-06T09:04:07.905Z,47.44
2022-10-06T09:06:50.161Z,47.10
2022-10-06T09:09:36.112Z,47.17
2022-10-06T09:12:18.182Z,47.19
2022-10-06T09:14:54.816Z,46.58
2022-10-06T09:17:32.865Z,47.27
2022-10-06T09:20:09.532Z,47.05
2022-10-06T09:22:42.472Z,47.43
2022-10-06T09:25:20.540Z,47.22
2022-10-06T09:27:56.619Z,47.22
2022-10-06T09:30:29.159Z,47.25
2022-10-06T09:33:04.428Z,47.41
2022-10-06T09:35:56.715Z,48.21
2022-10-06T09:38:48.978Z,48.31
2022-10-06T09:41:22.275Z,49.09
2022-10-06T09:43:59.767Z,49.63
2022-10-06T09:46:39.816Z,49.72
2022-10-06T09:49:20.828Z,49.74
2022-10-06T09:52:05.339Z,50.35
2022-10-06T09:54:38.786Z,50.82
2022-10-06T09:57:19.896Z,51.61
2022-10-06T09:59:52.933Z,51.89
2022-10-06T10:02:36.877Z,53.02
2022-10-06T10:05:23.601Z,53.54
2022-10-06T10:08:09.136Z,54.21
2022-10-06T10:10:42.568Z,54.64
2022-10-06T10:13:24.344Z,55.32
2022-10-06T10:15:59.901Z,56.09
2022-10-06T10:18:35.551Z,56.56
2022-10-06T10:21:10.505Z,57.39
2022-10-06T10:23:44.686Z,57.64
2022-10-06T10:26:27.057Z,57.19
2022-10-06T10:29:16.146Z,57.30
2022-10-06T10:31:57.028Z,56.82
2022-10-06T10:34:58.765Z,57.14
2022-10-06T10:37:39.808Z,57.24
2022-10-06T10:40:24.793Z,57.58
2022-10-06T10:43:06.436Z,57.95
2022-10-06T10:45:42.922Z,58.38
2022-10-06T10:48:20.802Z,58.73
2022-10-06T10:50:58.521Z,58.45
2022-10-06T10:53:47.672Z,58.76
2022-10-06T10:56:24.661Z,58.31
2022-10-06T10:59:02.024Z,58.38
2022-10-06T11:01:40.109Z,58.50
2022-10-06T11:04:15.143Z,58.72
2022-10-06T11:07:13.837Z,58.81
2022-10-06T11:09:54.208Z,59.09
2022-10-06T11:12:40.528Z,59.12
2022-10-06T11:15:22.520Z,58.85
2022-10-06T11:18:02.669Z,59.17
2022-10-06T11:20:46.048Z,59.65
2022-10-06T11:23:47.889Z,59.89
2022-10-06T11:26:38.117Z,59.69
2022-10-06T11:29:21.705Z,60.02
2022-10-06T11:32:04.298Z,59.76
2022-10-06T11:34:36.246Z,59.32
2022-10-06T11:37:21.179Z,59.49
2022-10-06T11:39:59.707Z,59.89
2022-10-06T11:42:40.661Z,59.96
2022-10-06T11:45:17.163Z,59.94
2022-10-06T11:48:11.029Z,60.15
2022-10-06T11:50:44.633Z,60.29
2022-10-06T11:53:38.013Z,60.43
2022-10-06T11:56:44.228Z,61.31
2022-10-06T11:59:32.364Z,62.13
2022-10-06T12:02:05.090Z,62.85
2022-10-06T12:04:37.074Z,63.15
2022-10-06T12:07:10.925Z,63.49
2022-10-06T12:10:15.853Z,63.80
2022-10-06T12:13:06.640Z,63.94
2022-10-06T12:18:55.890Z,64.77
2022-10-06T12:21:44.954Z,64.71
2022-10-06T12:24:42.548Z,64.85
2022-10-06T12:27:40.109Z,64.74
2022-10-06T12:30:23.423Z,64.70
2022-10-06T12:32:57.428Z,65.15
2022-10-06T12:35:34.136Z,65.57
2022-10-06T12:38:06.820Z,66.00
2022-10-06T12:40:59.475Z,66.36
2022-10-06T12:43:53.790Z,66.74
2022-10-06T12:46:35.169Z,67.17
2022-10-06T12:49:25.156Z,67.61
2022-10-06T12:51:59.829Z,68.15
2022-10-06T12:54:37.430Z,68.44
2022-10-06T12:57:20.097Z,68.45
2022-10-06T12:59:52.157Z,68.03
2022-10-06T13:02:26.740Z,67.17
2022-10-06T13:05:03.402Z,66.49
2022-10-06T13:07:56.570Z,65.47
2022-10-06T13:10:30.525Z,64.78
2022-10-06T13:13:02.769Z,64.23
2022-10-06T13:15:36.258Z,63.27
2022-10-06T13:18:16.026Z,63.56
2022-10-06T13:20:50.298Z,63.23
2022-10-06T13:23:26.818Z,62.60
2022-10-06T13:26:01.602Z,63.04
2022-10-06T13:28:48.799Z,63.18
2022-10-06T13:31:27.060Z,63.40
2022-10-06T13:34:02.775Z,63.67
2022-10-06T13:36:38.653Z,63.72
2022-10-06T13:39:15.517Z,63.69
2022-10-06T13:41:50.196Z,63.73
2022-10-06T13:44:32.613Z,63.36
2022-10-06T13:47:08.322Z,63.35
2022-10-06T13:49:47.448Z,63.10
2022-10-06T13:52:23.465Z,63.11
2022-10-06T13:54:57.895Z,62.96
2022-10-06T13:57:45.265Z,63.29
2022-10-06T14:00:22.729Z,63.46
2022-10-06T14:02:57.416Z,63.38
2022-10-06T14:05:36.539Z,63.91
2022-10-06T14:08:24.402Z,64.13
2022-10-06T14:10:58.951Z,63.96
2022-10-06T14:13:33.598Z,64.20
2022-10-06T14:16:08.467Z,64.37
2022-10-06T14:18:43.548Z,64.62
2022-10-06T14:21:30.318Z,64.83
2022-10-06T14:24:06.165Z,64.83
2022-10-06T14:26:41.743Z,64.85
2022-10-06T14:29:15.679Z,64.71
2022-10-06T14:31:48.462Z,64.70
2022-10-06T14:34:23.074Z,64.95
2022-10-06T14:36:55.579Z,65.11
2022-10-06T14:39:28.554Z,65.37
2022-10-06T14:42:02.076Z,65.28
2022-10-06T14:44:34.596Z,65.38
2022-10-06T14:47:06.312Z,65.42
2022-10-06T14:49:38.539Z,65.54
2022-10-06T14:52:12.302Z,65.93
2022-10-06T14:54:45.698Z,65.95
2022-10-06T14:57:20.592Z,65.83
2022-10-06T15:00:00.468Z,65.77
2022-10-06T15:02:33.044Z,65.71
2022-10-06T15:05:06.742Z,65.48
2022-10-06T15:07:58.760Z,65.46
2022-10-06T15:10:31.300Z,65.56
2022-10-06T15:13:03.247Z,65.70
2022-10-06T15:15:34.346Z,66.05
2022-10-06T15:18:06.877Z,66.34
2022-10-06T15:20:38.853Z,66.57
2022-10-06T15:23:09.672Z,66.88
2022-10-06T15:26:11.480Z,67.08
2022-10-06T15:29:01.608Z,67.41
2022-10-06T15:31:36.294Z,67.68
2022-10-06T15:34:10.643Z,67.61
2022-10-06T15:36:43.713Z,67.88
2022-10-06T15:39:17.988Z,68.19
2022-10-06T15:41:50.442Z,68.37
2022-10-06T15:44:23.772Z,68.53
2022-10-06T15:46:57.457Z,68.80
2022-10-06T15:49:30.414Z,68.84
2022-10-06T15:52:04.955Z,69.11
2022-10-06T15:54:41.272Z,69.39
2022-10-06T15:57:20.410Z,69.46
2022-10-06T15:59:53.644Z,69.66
2022-10-06T16:02:25.598Z,69.90
2022-10-06T16:05:19.267Z,69.83
2022-10-06T16:07:51.404Z,70.05
2022-10-06T16:10:23.299Z,69.98
2022-10-06T16:12:55.332Z,70.13
2022-10-06T16:15:25.739Z,70.36
2022-10-06T16:17:57.695Z,70.57
2022-10-06T16:20:29.973Z,70.30
2022-10-06T16:23:01.798Z,70.49
2022-10-06T16:25:34.021Z,70.61
2022-10-06T16:28:06.189Z,70.78
2022-10-06T16:30:38.118Z,70.83
2022-10-06T16:33:10.141Z,70.89
2022-10-06T16:35:42.231Z,70.96
2022-10-06T16:38:15.137Z,70.89
2022-10-06T16:40:53.978Z,70.89
2022-10-06T16:43:30.728Z,70.91
2022-10-06T16:46:04.461Z,71.02
2022-10-06T16:48:38.068Z,70.99
2022-10-06T16:52:26.459Z,71.01
2022-10-06T16:54:58.504Z,71.16
2022-10-06T16:57:30.581Z,71.13
2022-10-06T17:00:05.779Z,71.10
2022-10-06T17:02:38.873Z,71.31
2022-10-06T17:05:11.582Z,71.44
2022-10-06T17:07:43.641Z,71.46
2022-10-06T17:10:20.534Z,71.57
2022-10-06T17:12:53.456Z,71.70
2022-10-06T17:15:28.095Z,71.56
2022-10-06T17:18:02.557Z,71.71
2022-10-06T17:20:34.701Z,71.86
2022-10-06T17:23:06.610Z,72.00
2022-10-06T17:25:37.183Z,72.08
2022-10-06T17:28:09.891Z,72.28
2022-10-06T17:30:41.773Z,72.42
2022-10-06T17:33:13.902Z,72.45
2022-10-06T17:35:46.361Z,72.65
2022-10-06T17:38:18.451Z,72.81
2022-10-06T17:40:50.267Z,73.00
2022-10-06T17:43:23.379Z,73.02
2022-10-06T17:45:55.377Z,73.33
2022-10-06T17:48:29.834Z,73.29
2022-10-06T17:51:02.131Z,73.22
2022-10-06T17:53:34.209Z,73.50
2022-10-06T17:56:09.216Z,73.53
2022-10-06T17:58:43.060Z,73.84
2022-10-06T18:01:18.269Z,74.14
2022-10-06T18:03:52.877Z,74.30
2022-10-06T18:06:27.092Z,74.61
2022-10-06T18:09:02.494Z,74.65
2022-10-06T18:11:38.404Z,74.83
2022-10-06T18:14:12.008Z,74.93
2022-10-06T18:16:45.393Z,75.16
2022-10-06T18:19:18.962Z,75.19
2022-10-06T18:21:50.916Z,75.26
2022-10-06T18:24:25.037Z,75.59
2022-10-06T18:26:58.522Z,75.58
2022-10-06T18:29:32.461Z,75.84
2022-10-06T18:32:58.962Z,76.22
2022-10-06T18:36:11.006Z,76.06
2022-10-06T18:37:51.103Z,76.54
2022-10-06T18:40:25.078Z,76.54
2022-10-06T18:42:57.318Z,76.64
2022-10-06T18:45:49.529Z,76.14
2022-10-06T18:48:41.004Z,75.84
2022-10-06T18:51:15.439Z,75.96
2022-10-06T18:53:48.147Z,75.87
2022-10-06T18:56:21.874Z,75.62
2022-10-06T18:58:55.059Z,76.30
2022-10-06T19:01:30.661Z,76.73
2022-10-06T19:04:06.211Z,77.48
2022-10-06T19:06:42.860Z,77.58
2022-10-06T19:09:18.001Z,77.91
2022-10-06T19:11:53.052Z,78.12
2022-10-06T19:14:27.561Z,77.93
2022-10-06T19:17:02.408Z,78.31
2022-10-06T19:19:35.390Z,78.43
2022-10-06T19:22:07.907Z,78.40
2022-10-06T19:24:42.068Z,78.64
2022-10-06T19:27:16.147Z,78.84
2022-10-06T19:29:51.595Z,79.13
2022-10-06T19:32:27.526Z,79.35
2022-10-06T19:35:00.284Z,79.55
2022-10-06T19:37:35.192Z,79.42
2022-10-06T19:40:14.498Z,79.67
2022-10-06T19:42:51.161Z,79.40
2022-10-06T19:45:25.873Z,79.38
2022-10-06T19:47:57.879Z,79.52
2022-10-06T19:50:30.304Z,79.43
2022-10-06T19:53:04.977Z,79.36
2022-10-06T19:55:41.099Z,79.75
2022-10-06T19:58:25.240Z,79.85
2022-10-06T20:00:57.397Z,79.81
2022-10-06T20:03:39.842Z,80.06
2022-10-06T20:06:16.501Z,80.27
2022-10-06T20:08:54.160Z,80.52
2022-10-06T20:11:28.393Z,80.45
2022-10-06T20:14:03.865Z,80.61
2022-10-06T20:16:44.163Z,80.59
2022-10-06T20:19:20.351Z,80.30
2022-10-06T20:21:55.957Z,80.67
2022-10-06T20:24:34.245Z,80.86
2022-10-06T20:27:13.162Z,80.98
2022-10-06T20:29:45.240Z,81.16
2022-10-06T20:32:17.187Z,80.93
2022-10-06T20:34:47.599Z,80.93
2022-10-06T20:37:19.425Z,80.86
2022-10-06T20:40:08.589Z,81.15
2022-10-06T20:42:44.820Z,81.01
2022-10-06T20:45:17.148Z,81.10
2022-10-06T20:47:49.054Z,81.12
2022-10-06T20:50:21.284Z,81.15
2022-10-06T20:52:54.722Z,81.52
2022-10-06T20:55:26.641Z,81.75
2022-10-06T20:57:58.748Z,81.88
2022-10-06T21:00:30.811Z,81.84
2022-10-06T21:03:03.170Z,81.82
2022-10-06T21:05:35.401Z,81.93
2022-10-06T21:08:05.720Z,82.24
2022-10-06T21:10:37.895Z,81.94
2022-10-06T21:13:08.308Z,82.05
2022-10-06T21:15:46.412Z,82.54
2022-10-06T21:18:18.521Z,82.66
2022-10-06T21:21:00.501Z,82.31
2022-10-06T21:23:37.106Z,81.95
2022-10-06T21:26:12.480Z,82.01
2022-10-06T21:28:44.948Z,81.97
2022-10-06T21:31:19.244Z,82.64
2022-10-06T21:33:51.951Z,82.77
2022-10-06T21:36:26.148Z,82.24
2022-10-06T21:38:59.438Z,82.41
2022-10-06T21:41:36.046Z,82.27
2022-10-06T21:44:10.025Z,82.30
2022-10-06T21:46:46.338Z,82.37
2022-10-06T21:49:19.828Z,82.22
2022-10-06T21:51:53.682Z,82.19
2022-10-06T21:54:26.517Z,82.27
2022-10-06T21:56:59.208Z,82.35
2022-10-06T21:59:31.102Z,82.72
2022-10-06T22:02:03.046Z,82.64
2022-10-06T22:04:35.439Z,82.63
2022-10-06T22:07:07.579Z,82.85
2022-10-06T22:09:38.202Z,83.03
2022-10-06T22:12:10.121Z,83.30
2022-10-06T22:14:41.982Z,83.18
2022-10-06T22:17:14.055Z,83.23
2022-10-06T22:19:45.903Z,83.49
2022-10-06T22:22:17.854Z,83.35
2022-10-06T22:24:49.779Z,83.00
2022-10-06T22:27:21.584Z,83.28
2022-10-06T22:29:53.578Z,83.27
2022-10-06T22:32:25.443Z,83.26
2022-10-06T22:34:57.506Z,83.21
2022-10-06T22:37:29.430Z,83.21
2022-10-06T22:40:06.683Z,82.73
2022-10-06T22:42:39.570Z,81.98
2022-10-06T22:45:12.541Z,82.21
2022-10-06T22:47:44.772Z,82.45
2022-10-06T22:50:16.984Z,82.91
2022-10-06T22:52:48.926Z,82.80
2022-10-06T22:55:19.595Z,82.80
2022-10-06T22:57:52.008Z,82.71
2022-10-06T23:00:27.623Z,82.50
2022-10-06T23:02:59.920Z,82.48
2022-10-06T23:05:30.502Z,82.64
2022-10-06T23:08:02.866Z,82.71
2022-10-06T23:10:35.970Z,82.69
2022-10-06T23:13:07.749Z,82.16
2022-10-06T23:15:39.700Z,82.16
2022-10-06T23:18:12.189Z,81.93
2022-10-06T23:20:44.324Z,81.95
2022-10-06T23:23:14.638Z,82.08
2022-10-06T23:25:46.519Z,82.29
2022-10-06T23:28:18.638Z,82.65
2022-10-06T23:30:49.071Z,82.64
2022-10-06T23:33:21.478Z,82.89
2022-10-06T23:35:58.425Z,83.29
2022-10-06T23:38:30.484Z,83.16
2022-10-06T23:41:02.739Z,82.90
2022-10-06T23:43:33.550Z,82.93
2022-10-06T23:46:06.352Z,83.03
2022-10-06T23:48:38.521Z,83.39
2022-10-06T23:51:12.362Z,83.27
2022-10-06T23:53:44.707Z,83.13
2022-10-06T23:56:16.727Z,82.96
2022-10-06T23:58:49.004Z,82.98
